Pagrindinis puslapis
METAR-TAF:

METAR-TAF

Oro uostai :

Selawik, Aliaska, Jungtinės Amerikos Valstijos

platuma: 66-37N, ilguma: 160-00W, Aukštis: 8 m

Dabartinis oras

Ataskaita buvo paskelbta 1 valandą ir 5 minutes, ne 20:56 UTC
Vėjas 9 kt iš Vakarų
Temperatūra 5°C
Drėgmė 87%
Slėgis 1001 hPa
Matomumas: 4.8 km
Išsisklaidę debesys ne aukštis 800 ft
Su prošvaistėmis ne aukštis 1400 ft
Apsiniaukę ne aukštis 2100 ft
lietus, rūkana

METAR: PASK 212056Z AUTO 27009KT 3SM -RA BR SCT008 BKN014 OVC021 05/03 A2956 RMK AO2 RAB04 SLP005 P0000 6//// T00500033

Laikas: 14:01 (22:01 UTC)


TAF: trūkstamas

Orai ataskaitas ir orų prognozės (METAR, TAF).

turimą stotys yra geltonos ir raudonos taškus žemėlapyje.

Perkelti pele per norėdami pamatyti stoties vardą.

Tada spustelėkite, norėdami matyti oro stebėjimo ir prognozės.

Norėdami pakeisti žemėlapį: spustelėkite ant žalios mygtukų su juodo kryžiaus žemyn,; žalią mygtuką su brūkšneliu, jei norite nutolinti; arba žalių rodyklių gretimoms žemėlapius.


METAR-TAF: